Time;durP1;ratioP1;P1;durP2;ratioP2;P2;SDS_P1;SDS_P2;PMS_P1;PMS_P2;Temp;Humidity;BMP_temperature;BMP_pressure;BME280_temperature;BME280_humidity;BME280_pressure;Samples;Min_cycle;Max_cycle;Signal;HPM_P1;HPM_P2
2023/01/26 00:00:55;;;;;;;50.47;15.77;;;0.30;99.90;;;;;;5069885;28;20031;-60
2023/01/26 00:03:21;;;;;;;43.85;16.73;;;0.20;99.90;;;;;;5069314;28;20050;-59
2023/01/26 00:05:47;;;;;;;42.55;14.90;;;0.20;99.90;;;;;;5091763;28;20028;-58
2023/01/26 00:08:13;;;;;;;40.47;15.82;;;0.20;99.90;;;;;;5078014;28;20107;-59
2023/01/26 00:10:40;;;;;;;51.80;18.70;;;0.10;99.90;;;;;;5070514;28;20024;-58
2023/01/26 00:13:07;;;;;;;50.00;18.48;;;0.20;99.90;;;;;;5070835;28;20099;-59
2023/01/26 00:15:34;;;;;;;42.90;16.05;;;0.70;99.90;;;;;;5070997;28;20032;-60
2023/01/26 00:18:00;;;;;;;46.08;17.55;;;0.30;99.90;;;;;;5071350;28;20067;-58
2023/01/26 00:20:26;;;;;;;46.47;15.52;;;0.50;99.90;;;;;;5071194;28;20017;-59
2023/01/26 00:22:52;;;;;;;44.70;15.70;;;0.20;99.90;;;;;;5056440;28;20025;-60
2023/01/26 00:25:18;;;;;;;43.22;15.88;;;0.10;99.90;;;;;;5072083;28;20154;-59
2023/01/26 00:27:43;;;;;;;43.83;15.32;;;0.10;99.90;;;;;;5072495;28;20035;-59
2023/01/26 00:30:09;;;;;;;41.78;16.55;;;0.10;99.90;;;;;;5073009;28;20031;-59
2023/01/26 00:32:36;;;;;;;52.38;15.82;;;0.00;99.90;;;;;;5059423;28;20717;-56
2023/01/26 00:35:03;;;;;;;55.78;18.30;;;0.10;99.90;;;;;;5051454;28;20041;-59
2023/01/26 00:37:28;;;;;;;49.22;17.63;;;0.00;99.90;;;;;;5050903;28;20092;-59
2023/01/26 00:39:54;;;;;;;58.22;19.15;;;0.00;99.90;;;;;;5051651;28;20051;-59
2023/01/26 00:42:20;;;;;;;52.30;18.63;;;0.00;99.90;;;;;;5063848;28;20434;-60
2023/01/26 00:44:46;;;;;;;54.03;18.20;;;0.00;99.90;;;;;;5070092;28;20028;-60
2023/01/26 00:47:13;;;;;;;59.20;20.02;;;0.00;99.90;;;;;;5069544;28;20029;-60
2023/01/26 00:49:39;;;;;;;44.60;17.55;;;0.70;99.90;;;;;;5052230;28;20021;-59
2023/01/26 00:52:05;;;;;;;55.83;18.15;;;0.00;99.90;;;;;;5057516;28;20899;-60
2023/01/26 00:54:31;;;;;;;52.40;18.15;;;-0.10;99.90;;;;;;5069864;28;20060;-62
2023/01/26 00:56:57;;;;;;;47.60;16.15;;;-0.10;99.90;;;;;;5051869;28;20068;-60
2023/01/26 00:59:23;;;;;;;49.53;16.58;;;-0.10;99.90;;;;;;5052145;28;20040;-60
2023/01/26 01:01:48;;;;;;;47.30;17.70;;;-0.10;99.90;;;;;;5059517;28;20017;-59
2023/01/26 01:04:15;;;;;;;57.17;17.15;;;-0.10;99.90;;;;;;5066697;28;20048;-59
2023/01/26 01:06:41;;;;;;;47.35;17.58;;;-0.20;99.90;;;;;;5050787;28;20388;-61
2023/01/26 01:09:07;;;;;;;62.65;19.38;;;-0.10;99.90;;;;;;5052931;28;20502;-60
2023/01/26 01:11:33;;;;;;;54.88;18.02;;;-0.10;99.90;;;;;;5064134;28;20028;-60
2023/01/26 01:13:58;;;;;;;60.35;17.95;;;-0.10;99.90;;;;;;5063413;28;20036;-60
2023/01/26 01:16:24;;;;;;;43.72;16.50;;;0.00;99.90;;;;;;5069009;28;20496;-59
2023/01/26 01:18:53;;;;;;;47.38;17.95;;;0.00;99.90;;;;;;5055734;28;20029;-60
2023/01/26 01:21:19;;;;;;;50.42;16.42;;;-0.10;99.90;;;;;;5055865;28;20578;-58
2023/01/26 01:23:45;;;;;;;54.20;18.55;;;-0.10;99.90;;;;;;5064919;28;20108;-60
2023/01/26 01:26:12;;;;;;;60.60;19.58;;;-0.10;99.90;;;;;;5050518;28;20484;-60
2023/01/26 01:28:38;;;;;;;56.13;18.77;;;0.10;99.90;;;;;;5053413;28;20040;-60
2023/01/26 01:31:09;;;;;;;67.07;22.20;;;-0.10;99.90;;;;;;5068094;28;20035;-60
2023/01/26 01:33:35;;;;;;;66.43;20.95;;;-0.10;99.90;;;;;;5059223;28;20028;-58
2023/01/26 01:36:06;;;;;;;68.85;20.63;;;0.50;99.90;;;;;;5050575;28;20028;-59
2023/01/26 01:38:32;;;;;;;66.18;19.48;;;-0.10;99.90;;;;;;5051343;28;20021;-57
2023/01/26 01:40:57;;;;;;;68.60;20.85;;;-0.20;99.90;;;;;;5069233;28;20445;-59
2023/01/26 01:43:25;;;;;;;65.60;20.25;;;0.10;99.90;;;;;;5059824;28;20032;-58
2023/01/26 01:45:52;;;;;;;68.45;20.88;;;0.40;99.90;;;;;;5065898;28;20029;-60
2023/01/26 01:48:34;;;;;;;67.72;21.77;;;0.00;99.90;;;;;;5050552;28;20036;-59
2023/01/26 01:51:06;;;;;;;64.32;22.08;;;-0.10;99.90;;;;;;5057613;28;20035;-60
2023/01/26 01:53:36;;;;;;;65.57;19.85;;;-0.10;99.90;;;;;;5062960;28;20508;-59
2023/01/26 01:56:05;;;;;;;69.68;21.80;;;-0.10;99.90;;;;;;5068723;28;20029;-60
2023/01/26 01:58:35;;;;;;;72.55;22.73;;;-0.10;99.90;;;;;;5053792;28;20751;-60
2023/01/26 02:01:01;;;;;;;78.40;22.67;;;-0.10;99.90;;;;;;5062731;28;20040;-60
2023/01/26 02:03:28;;;;;;;75.82;22.15;;;-0.10;99.90;;;;;;5056523;28;20021;-59
2023/01/26 02:06:34;;;;;;;63.67;20.50;;;-0.10;99.90;;;;;;5057106;28;20105;-59
2023/01/26 02:09:01;;;;;;;64.65;21.98;;;0.00;99.90;;;;;;5062838;28;20082;-59
2023/01/26 02:11:32;;;;;;;66.55;21.60;;;0.00;99.90;;;;;;5062234;28;20107;-59
2023/01/26 02:13:59;;;;;;;58.80;21.80;;;0.10;99.90;;;;;;5062315;28;20029;-61
2023/01/26 02:16:25;;;;;;;51.25;18.13;;;0.00;99.90;;;;;;5061072;28;20036;-60
2023/01/26 02:18:50;;;;;;;56.22;19.45;;;0.10;99.90;;;;;;5073432;28;20025;-60
2023/01/26 02:21:18;;;;;;;50.47;17.15;;;0.10;99.90;;;;;;5069158;28;20021;-59
2023/01/26 02:23:47;;;;;;;49.88;18.30;;;0.20;99.90;;;;;;5071769;28;20037;-58
2023/01/26 02:26:33;;;;;;;51.42;18.00;;;0.20;99.90;;;;;;5067297;28;20029;-60
2023/01/26 02:29:00;;;;;;;50.58;17.80;;;0.20;99.90;;;;;;5053357;28;20488;-60
2023/01/26 02:31:27;;;;;;;65.53;19.77;;;0.80;99.90;;;;;;5056821;28;20033;-60
2023/01/26 02:33:52;;;;;;;51.60;16.80;;;0.10;99.90;;;;;;5066103;28;20032;-60
2023/01/26 02:36:25;;;;;;;58.83;18.80;;;0.10;99.90;;;;;;5066506;28;20025;-59
2023/01/26 02:39:03;;;;;;;59.17;20.23;;;0.30;99.90;;;;;;5053042;28;20025;-57
2023/01/26 02:44:14;;;;;;;57.65;19.77;;;0.00;99.90;;;;;;5070725;22;20076;-62
2023/01/26 02:46:40;;;;;;;54.92;19.50;;;0.10;99.90;;;;;;5014546;28;20400;-63
2023/01/26 02:51:49;;;;;;;74.70;23.00;;;0.10;99.90;;;;;;5017764;28;20041;-64
2023/01/26 02:56:59;;;;;;;79.32;21.33;;;0.00;99.90;;;;;;5021515;28;20072;-63
2023/01/26 02:59:25;;;;;;;70.57;23.58;;;0.10;99.90;;;;;;5012560;28;20030;-62
2023/01/26 03:01:52;;;;;;;81.60;22.63;;;0.00;99.90;;;;;;5015587;28;20405;-62
2023/01/26 03:04:18;;;;;;;66.47;24.10;;;0.00;99.90;;;;;;5012613;28;20099;-60
2023/01/26 03:06:43;;;;;;;69.38;19.05;;;-0.10;99.90;;;;;;5027423;28;20057;-61
2023/01/26 03:09:09;;;;;;;70.28;21.35;;;0.00;99.90;;;;;;5015165;28;20040;-62
2023/01/26 03:11:40;;;;;;;67.95;20.88;;;-0.10;99.90;;;;;;5025383;28;20040;-65
2023/01/26 03:14:15;;;;;;;76.97;21.55;;;-0.10;99.90;;;;;;5032092;28;20033;-61
2023/01/26 03:16:41;;;;;;;;;;;-0.10;99.90;;;;;;5016801;28;20026;-65
2023/01/26 03:27:26;;;;;;;73.20;22.15;;;-0.10;99.90;;;;;;5012508;28;20055;-66
2023/01/26 03:29:52;;;;;;;76.40;23.27;;;0.00;99.90;;;;;;5012404;28;20037;-64
2023/01/26 03:32:18;;;;;;;78.07;23.60;;;0.00;99.90;;;;;;4995689;28;20421;-65
2023/01/26 03:34:43;;;;;;;72.38;21.95;;;0.00;99.90;;;;;;5011776;28;20030;-63
2023/01/26 03:37:10;;;;;;;68.45;21.88;;;0.00;99.90;;;;;;5013479;28;20029;-64
2023/01/26 03:56:19;;;;;;;58.63;17.38;;;-0.10;99.90;;;;;;5023648;28;20103;-61
2023/01/26 03:58:48;;;;;;;62.40;19.45;;;-0.20;99.90;;;;;;5011880;28;20030;-64
2023/01/26 04:01:18;;;;;;;58.55;19.30;;;-0.10;99.90;;;;;;5008511;28;20176;-63
2023/01/26 04:09:20;;;;;;;56.00;19.33;;;-0.20;99.90;;;;;;5031240;28;20071;-64
2023/01/26 04:11:46;;;;;;;60.85;20.30;;;-0.10;99.90;;;;;;4999925;28;20405;-65
2023/01/26 04:22:27;;;;;;;49.72;17.40;;;-0.10;99.90;;;;;;5029282;28;20448;-63
2023/01/26 04:24:53;;;;;;;49.30;17.40;;;-0.10;99.90;;;;;;5030946;28;20037;-63
2023/01/26 04:27:18;;;;;;;52.00;17.73;;;-0.20;99.90;;;;;;5013814;28;20485;-64
2023/01/26 04:29:44;;;;;;;53.33;17.23;;;-0.20;99.90;;;;;;5014569;28;20079;-63
2023/01/26 04:32:09;;;;;;;58.60;18.83;;;-0.20;99.90;;;;;;5015260;28;20018;-61
2023/01/26 04:34:35;;;;;;;61.42;18.80;;;0.20;99.90;;;;;;5011098;28;20033;-63
2023/01/26 04:37:03;;;;;;;41.28;15.55;;;0.50;99.90;;;;;;5008161;28;20028;-64
2023/01/26 04:39:29;;;;;;;54.55;19.73;;;-0.20;99.90;;;;;;5027900;28;20115;-64
2023/01/26 04:41:55;;;;;;;48.00;15.73;;;-0.20;99.90;;;;;;5030613;28;20441;-62
2023/01/26 04:44:20;;;;;;;49.95;17.15;;;-0.30;99.90;;;;;;5028084;28;20029;-62
2023/01/26 04:46:47;;;;;;;52.72;17.55;;;-0.20;99.90;;;;;;5011164;28;20391;-64
2023/01/26 04:49:13;;;;;;;46.28;15.43;;;-0.10;99.90;;;;;;5011317;28;20026;-67
2023/01/26 04:51:39;;;;;;;40.38;14.55;;;-0.10;99.90;;;;;;5029158;28;20627;-64
2023/01/26 04:54:05;;;;;;;48.03;17.10;;;-0.10;99.90;;;;;;5014650;28;20034;-62
2023/01/26 04:56:33;;;;;;;49.17;15.63;;;-0.10;99.90;;;;;;5014677;28;20049;-63
2023/01/26 04:59:01;;;;;;;41.80;14.60;;;-0.10;99.90;;;;;;5030887;28;20029;-65
2023/01/26 05:01:27;;;;;;;42.75;16.35;;;-0.10;99.90;;;;;;5028072;28;20072;-64
2023/01/26 05:03:52;;;;;;;45.85;15.45;;;0.00;99.90;;;;;;5030416;28;20489;-64
2023/01/26 05:06:18;;;;;;;43.05;14.75;;;0.00;99.90;;;;;;5013366;28;20083;-60
2023/01/26 05:08:44;;;;;;;33.65;14.73;;;0.60;99.90;;;;;;5011059;28;20030;-61
2023/01/26 05:11:10;;;;;;;40.33;14.93;;;-0.10;99.90;;;;;;5012375;28;20111;-66
2023/01/26 05:13:36;;;;;;;37.42;13.80;;;0.00;99.90;;;;;;5010382;28;20132;-62
2023/01/26 05:16:03;;;;;;;39.08;14.50;;;0.00;99.90;;;;;;5024081;28;20105;-63
2023/01/26 05:18:29;;;;;;;38.22;13.25;;;0.00;99.90;;;;;;5030447;28;20091;-64
2023/01/26 05:20:55;;;;;;;38.20;13.85;;;0.00;99.90;;;;;;5025531;28;20018;-61
2023/01/26 05:23:21;;;;;;;36.58;14.75;;;0.00;99.90;;;;;;5048378;28;20033;-64
2023/01/26 05:25:47;;;;;;;39.40;12.88;;;0.00;99.90;;;;;;5048913;28;20454;-64
2023/01/26 05:28:13;;;;;;;38.10;12.77;;;-0.10;99.90;;;;;;5016508;28;20120;-64
2023/01/26 05:30:38;;;;;;;30.92;11.95;;;0.00;99.90;;;;;;5023613;28;20079;-61
2023/01/26 05:33:05;;;;;;;25.77;11.65;;;0.00;99.90;;;;;;5028345;28;20045;-62
2023/01/26 05:35:31;;;;;;;36.53;13.30;;;0.40;99.90;;;;;;4997098;28;20026;-65
2023/01/26 05:37:56;;;;;;;37.20;13.75;;;0.00;99.90;;;;;;5033918;28;20099;-56
2023/01/26 05:40:23;;;;;;;45.90;15.48;;;1.10;99.90;;;;;;5024559;28;20019;-64
2023/01/26 05:42:49;;;;;;;39.95;14.35;;;0.00;99.90;;;;;;5029646;28;20509;-62
2023/01/26 05:45:15;;;;;;;40.10;14.00;;;-0.10;99.90;;;;;;4671090;28;9999975;-65
2023/01/26 05:47:43;;;;;;;48.58;15.38;;;-0.10;99.90;;;;;;5030072;28;20025;-64
2023/01/26 05:50:09;;;;;;;40.92;14.35;;;0.00;99.90;;;;;;5030800;28;20032;-61
2023/01/26 05:52:35;;;;;;;37.15;14.70;;;0.00;99.90;;;;;;5017210;28;20092;-65
2023/01/26 05:55:02;;;;;;;47.10;15.60;;;0.00;99.90;;;;;;5010733;28;20030;-62
2023/01/26 05:57:27;;;;;;;44.63;14.93;;;0.00;99.90;;;;;;5026561;28;20055;-64
2023/01/26 05:59:53;;;;;;;41.15;14.10;;;2.00;99.90;;;;;;5012911;28;20117;-63
2023/01/26 06:02:19;;;;;;;40.78;15.07;;;0.10;99.90;;;;;;5010927;28;20654;-62
2023/01/26 06:04:44;;;;;;;44.17;13.18;;;0.00;99.90;;;;;;5027520;28;20477;-66
2023/01/26 06:07:12;;;;;;;40.67;13.93;;;0.00;99.90;;;;;;5018334;28;20033;-62
2023/01/26 06:09:38;;;;;;;39.97;13.40;;;0.00;99.90;;;;;;5029393;28;20029;-60
2023/01/26 06:12:04;;;;;;;40.85;13.57;;;-0.10;99.90;;;;;;5037113;28;20029;-61
2023/01/26 06:14:30;;;;;;;42.22;13.95;;;0.00;99.90;;;;;;5022850;28;20079;-63
2023/01/26 06:16:56;;;;;;;43.13;14.60;;;0.00;99.90;;;;;;5025920;28;20507;-59
2023/01/26 06:19:21;;;;;;;37.65;12.18;;;0.50;99.90;;;;;;5025169;28;20562;-59
2023/01/26 06:21:47;;;;;;;34.33;13.05;;;0.00;99.90;;;;;;5023064;28;20567;-67
2023/01/26 06:24:13;;;;;;;38.70;13.23;;;-0.10;99.90;;;;;;5008522;28;20449;-64
2023/01/26 06:26:39;;;;;;;48.35;15.02;;;-0.20;99.90;;;;;;5011139;28;20037;-64
2023/01/26 06:29:05;;;;;;;36.22;12.68;;;-0.20;99.90;;;;;;5029121;28;20028;-64
2023/01/26 06:31:31;;;;;;;45.30;13.30;;;-0.30;99.90;;;;;;5027325;28;20079;-60
2023/01/26 06:33:57;;;;;;;46.15;14.70;;;-0.30;99.90;;;;;;5023328;28;20034;-64
2023/01/26 06:36:22;;;;;;;36.70;12.23;;;-0.20;99.90;;;;;;5026285;28;20449;-64
2023/01/26 06:38:51;;;;;;;30.75;12.27;;;-0.30;99.90;;;;;;5027106;28;20095;-66
2023/01/26 06:41:17;;;;;;;41.30;12.48;;;-0.20;99.90;;;;;;5009443;28;20103;-63
2023/01/26 06:43:47;;;;;;;25.30;9.02;;;1.90;99.90;;;;;;4668320;28;10000634;-65
2023/01/26 06:46:14;;;;;;;28.27;10.57;;;-0.20;99.90;;;;;;5024114;28;20061;-65
2023/01/26 06:48:40;;;;;;;29.75;11.85;;;-0.20;99.90;;;;;;5015234;28;20091;-64
2023/01/26 06:51:15;;;;;;;43.78;13.60;;;-0.10;99.90;;;;;;5038531;28;20037;-66
2023/01/26 06:54:00;;;;;;;;;;;-0.20;99.90;;;;;;5007159;28;20037;-63
2023/01/26 06:56:27;;;;;;;35.55;12.75;;;-0.10;99.90;;;;;;5023833;28;19912;-64
2023/01/26 06:58:53;;;;;;;39.42;13.88;;;-0.10;99.90;;;;;;5034018;28;20029;-63
2023/01/26 07:01:21;;;;;;;34.35;12.82;;;-0.10;99.90;;;;;;5019591;28;20033;-65
2023/01/26 07:03:48;;;;;;;31.00;13.73;;;-0.20;99.90;;;;;;5014820;28;20105;-64
2023/01/26 07:06:14;;;;;;;31.00;12.70;;;-0.20;99.90;;;;;;5009935;28;20109;-59
2023/01/26 07:08:40;;;;;;;38.78;13.32;;;-0.30;99.90;;;;;;5038133;28;20083;-64
2023/01/26 07:11:06;;;;;;;45.25;13.63;;;-0.30;99.90;;;;;;5016302;28;20175;-65
2023/01/26 07:13:32;;;;;;;33.33;13.23;;;-0.20;99.90;;;;;;5007891;28;20033;-64
2023/01/26 07:16:08;;;;;;;41.25;14.63;;;-0.20;99.90;;;;;;5015968;28;20085;-63
2023/01/26 07:18:34;;;;;;;41.30;13.88;;;-0.20;99.90;;;;;;5016864;28;20048;-64
2023/01/26 07:21:01;;;;;;;34.58;13.00;;;-0.20;99.90;;;;;;5012036;28;20591;-65
2023/01/26 07:23:26;;;;;;;53.80;15.25;;;-0.20;99.90;;;;;;5023994;28;20346;-61
2023/01/26 07:25:52;;;;;;;46.65;14.20;;;-0.20;99.90;;;;;;5012701;28;20022;-61
2023/01/26 07:28:18;;;;;;;48.80;14.10;;;-0.20;99.90;;;;;;5009910;28;20060;-63
2023/01/26 07:30:43;;;;;;;45.75;14.63;;;-0.20;99.90;;;;;;5045190;28;20029;-64
2023/01/26 07:33:09;;;;;;;40.80;14.50;;;-0.20;99.90;;;;;;5023675;28;20465;-62
2023/01/26 07:35:35;;;;;;;51.95;13.82;;;-0.30;99.90;;;;;;5008765;28;20065;-61
2023/01/26 07:38:04;;;;;;;47.58;14.80;;;-0.30;99.90;;;;;;5032072;28;20025;-63
2023/01/26 07:40:29;;;;;;;48.67;14.38;;;-0.40;99.90;;;;;;5042968;28;20057;-64
2023/01/26 07:42:56;;;;;;;52.97;16.05;;;-0.40;99.90;;;;;;5026501;28;20481;-61
2023/01/26 07:45:21;;;;;;;53.20;16.55;;;-0.40;99.90;;;;;;5029445;28;20025;-59
2023/01/26 07:47:47;;;;;;;48.88;15.40;;;-0.40;99.90;;;;;;5030892;28;20036;-62
2023/01/26 07:50:13;;;;;;;46.97;14.75;;;-0.40;99.90;;;;;;5031083;28;20032;-59
2023/01/26 07:52:39;;;;;;;48.83;13.82;;;-0.40;99.90;;;;;;5025426;28;20026;-59
2023/01/26 07:55:05;;;;;;;46.08;15.55;;;-0.50;99.90;;;;;;5007724;28;20033;-60
2023/01/26 07:57:32;;;;;;;58.45;16.08;;;-0.40;99.90;;;;;;5020485;28;20053;-61
2023/01/26 07:59:58;;;;;;;52.95;16.85;;;0.00;99.90;;;;;;4996211;28;20030;-63
2023/01/26 08:02:24;;;;;;;39.60;14.50;;;-0.40;99.90;;;;;;5020719;28;20079;-62
2023/01/26 08:04:49;;;;;;;48.25;15.93;;;-0.30;99.90;;;;;;5030673;28;20017;-56
2023/01/26 08:07:15;;;;;;;38.72;15.15;;;-0.30;99.90;;;;;;5030596;28;20431;-62
2023/01/26 08:09:41;;;;;;;48.00;16.80;;;-0.40;99.90;;;;;;5030840;28;20040;-59
2023/01/26 08:12:06;;;;;;;44.78;15.82;;;-0.40;99.90;;;;;;5023332;28;20041;-62
2023/01/26 08:14:32;;;;;;;48.78;15.68;;;-0.40;99.90;;;;;;5010661;28;20029;-63
2023/01/26 08:16:58;;;;;;;36.83;12.98;;;-0.40;99.90;;;;;;5018430;28;20071;-62
2023/01/26 08:19:24;;;;;;;41.95;12.73;;;-0.40;99.90;;;;;;5051327;28;20031;-57
2023/01/26 08:21:50;;;;;;;36.80;12.57;;;-0.40;99.90;;;;;;5044745;28;20025;-57
2023/01/26 08:24:16;;;;;;;35.53;13.95;;;-0.30;99.90;;;;;;5012476;28;20025;-58
2023/01/26 08:26:55;;;;;;;46.85;14.35;;;-0.30;99.90;;;;;;5031276;28;20541;-65
2023/01/26 08:29:20;;;;;;;42.03;14.43;;;-0.40;99.90;;;;;;5030042;28;20045;-61
2023/01/26 08:31:46;;;;;;;39.35;14.85;;;-0.40;99.90;;;;;;5026779;28;20030;-55
2023/01/26 08:34:12;;;;;;;43.88;15.38;;;-0.30;99.90;;;;;;5010817;28;20026;-60
2023/01/26 08:36:38;;;;;;;49.85;16.67;;;-0.40;99.90;;;;;;5010950;28;20516;-61
2023/01/26 08:39:04;;;;;;;40.08;15.32;;;-0.50;99.90;;;;;;5011248;28;20125;-57
2023/01/26 08:41:30;;;;;;;28.45;12.30;;;0.10;99.90;;;;;;5012562;28;20124;-62
2023/01/26 08:43:58;;;;;;;33.25;11.90;;;-0.50;99.90;;;;;;5035130;23;20049;-58
2023/01/26 08:46:26;;;;;;;30.27;12.43;;;-0.60;99.90;;;;;;5071857;28;20132;-58
2023/01/26 08:48:52;;;;;;;27.73;13.95;;;-0.50;99.90;;;;;;5074984;28;20079;-58
2023/01/26 08:51:18;;;;;;;32.67;13.48;;;0.50;99.90;;;;;;5074960;28;20438;-56
2023/01/26 08:53:44;;;;;;;38.80;14.82;;;-0.50;99.90;;;;;;5071986;28;20480;-57
2023/01/26 08:56:11;;;;;;;37.35;17.05;;;-0.60;99.90;;;;;;5052740;28;20025;-56
2023/01/26 08:58:38;;;;;;;36.65;16.35;;;-0.60;99.90;;;;;;5055006;28;20387;-57
2023/01/26 09:01:09;;;;;;;45.92;18.00;;;-0.60;99.90;;;;;;5056425;28;20032;-56
2023/01/26 09:03:35;;;;;;;39.13;16.45;;;-0.70;99.90;;;;;;5056094;28;20029;-57
2023/01/26 09:06:03;;;;;;;46.92;19.60;;;-0.60;99.90;;;;;;5056400;28;20099;-58
2023/01/26 09:08:29;;;;;;;35.85;17.35;;;-0.60;99.90;;;;;;5057138;28;20470;-58
2023/01/26 09:10:55;;;;;;;46.38;18.55;;;-0.60;99.90;;;;;;5056255;28;20032;-59
2023/01/26 09:13:21;;;;;;;51.92;19.35;;;-0.10;99.90;;;;;;5055948;28;20111;-61
2023/01/26 09:15:47;;;;;;;38.58;16.83;;;-0.50;99.90;;;;;;5056308;28;20036;-55
2023/01/26 09:18:12;;;;;;;49.28;18.63;;;-0.50;99.90;;;;;;5056393;28;20021;-55
2023/01/26 09:20:38;;;;;;;38.58;17.50;;;-0.50;99.90;;;;;;5056245;28;20389;-55
2023/01/26 09:23:04;;;;;;;45.17;18.45;;;-0.50;99.90;;;;;;5056157;28;20103;-59
2023/01/26 09:25:30;;;;;;;43.20;17.58;;;-0.50;99.90;;;;;;5056910;28;20020;-55
2023/01/26 09:27:56;;;;;;;37.50;17.27;;;-0.50;99.90;;;;;;5056821;28;20043;-58
2023/01/26 09:30:23;;;;;;;30.33;16.20;;;-0.50;99.90;;;;;;5056277;28;20055;-58
2023/01/26 09:32:50;;;;;;;45.42;19.08;;;-0.60;99.90;;;;;;5055149;28;20048;-60
2023/01/26 09:35:16;;;;;;;39.08;17.42;;;-0.30;99.90;;;;;;5055980;28;20044;-59
2023/01/26 09:37:44;;;;;;;42.58;18.63;;;-0.70;99.90;;;;;;5056202;28;20041;-57
2023/01/26 09:40:26;;;;;;;41.85;18.50;;;-0.70;99.90;;;;;;5056339;28;20037;-60
2023/01/26 09:43:11;;;;;;;34.15;16.55;;;-0.70;99.90;;;;;;5055784;28;20032;-57
2023/01/26 09:46:05;;;;;;;34.53;16.17;;;-0.60;99.90;;;;;;5055082;28;20060;-57
2023/01/26 09:48:42;;;;;;;31.27;13.70;;;-0.60;99.90;;;;;;5056139;28;20025;-57
2023/01/26 09:51:18;;;;;;;35.65;14.80;;;-0.70;99.90;;;;;;5055628;28;20024;-55
2023/01/26 09:53:53;;;;;;;40.13;17.40;;;-0.70;99.90;;;;;;5055026;28;20053;-52
2023/01/26 09:56:22;;;;;;;37.30;17.48;;;-0.60;99.90;;;;;;5056292;28;20499;-57
2023/01/26 09:59:01;;;;;;;39.60;17.73;;;-0.40;99.90;;;;;;5037515;28;20025;-52
2023/01/26 10:01:42;;;;;;;41.17;17.88;;;-0.60;99.90;;;;;;5055818;28;20439;-57
2023/01/26 10:04:23;;;;;;;36.47;17.45;;;-0.60;99.90;;;;;;5035408;28;20452;-57
2023/01/26 10:06:52;;;;;;;36.95;16.25;;;-0.50;99.90;;;;;;5018054;28;20083;-57
2023/01/26 10:09:25;;;;;;;36.15;15.73;;;-0.60;99.90;;;;;;5034302;28;20109;-55
2023/01/26 10:12:00;;;;;;;38.58;16.80;;;-0.60;99.90;;;;;;5037228;28;20397;-56
2023/01/26 10:14:31;;;;;;;;;;;-0.60;99.90;;;;;;5055099;28;20519;-58
2023/01/26 10:16:58;;;;;;;26.17;15.02;;;-0.60;99.90;;;;;;5054998;28;19912;-56
2023/01/26 10:19:29;;;;;;;32.15;15.80;;;-0.60;99.90;;;;;;5058725;28;20013;-63
2023/01/26 10:21:59;;;;;;;35.55;17.35;;;-0.50;99.90;;;;;;5057392;28;20067;-58
2023/01/26 10:24:25;;;;;;;30.55;14.77;;;-0.30;99.90;;;;;;5063088;28;20032;-59
2023/01/26 10:26:55;;;;;;;36.75;15.38;;;-0.40;99.90;;;;;;5068272;28;20451;-59
2023/01/26 10:29:21;;;;;;;39.17;16.45;;;0.20;99.90;;;;;;5077117;28;20415;-57
2023/01/26 10:31:47;;;;;;;43.03;15.85;;;-0.60;99.90;;;;;;5065877;28;20028;-59
2023/01/26 10:34:24;;;;;;;37.22;16.23;;;-0.70;99.90;;;;;;5054143;28;20024;-57
2023/01/26 10:36:59;;;;;;;38.75;15.73;;;-0.70;99.90;;;;;;5063118;28;20392;-57
2023/01/26 10:39:25;;;;;;;44.38;19.38;;;-0.70;99.90;;;;;;5064898;28;20033;-59
2023/01/26 10:41:59;;;;;;;47.60;18.83;;;-0.70;99.90;;;;;;5063529;28;20025;-60
2023/01/26 10:44:36;;;;;;;39.90;19.30;;;-0.60;99.90;;;;;;5052024;28;20052;-62
2023/01/26 10:47:16;;;;;;;39.22;16.58;;;-0.70;99.90;;;;;;5053127;28;20110;-57
2023/01/26 10:49:42;;;;;;;39.42;15.73;;;-0.20;99.90;;;;;;5053329;28;20103;-60
2023/01/26 10:52:22;;;;;;;43.60;17.77;;;-0.70;99.90;;;;;;5053310;28;20033;-57
2023/01/26 10:55:08;;;;;;;37.17;16.25;;;-0.70;99.90;;;;;;5052621;28;20025;-62
2023/01/26 10:57:38;;;;;;;51.97;18.02;;;-0.70;99.90;;;;;;5053704;28;20028;-59
2023/01/26 11:00:23;;;;;;;51.25;20.13;;;-0.70;99.90;;;;;;5073784;28;20013;-59
2023/01/26 11:02:51;;;;;;;53.05;21.70;;;-0.60;99.90;;;;;;5063781;28;20029;-61
2023/01/26 11:05:24;;;;;;;50.95;20.83;;;-0.60;99.90;;;;;;5053029;28;20029;-59
2023/01/26 11:07:59;;;;;;;47.40;20.23;;;-0.60;99.90;;;;;;5052768;28;20121;-61
2023/01/26 11:10:27;;;;;;;41.65;17.58;;;-0.80;99.90;;;;;;5051368;28;20096;-61
2023/01/26 11:13:18;;;;;;;45.25;16.17;;;-0.50;99.90;;;;;;5034868;28;20443;-62
2023/01/26 11:15:49;;;;;;;43.83;17.27;;;-0.70;99.90;;;;;;5053041;28;20035;-59
2023/01/26 11:18:32;;;;;;;50.40;18.83;;;-0.70;99.90;;;;;;5036154;28;20167;-61
2023/01/26 11:21:32;;;;;;;41.90;18.17;;;-0.60;99.90;;;;;;5035885;28;20021;-63
2023/01/26 11:24:02;;;;;;;45.45;18.17;;;-0.60;99.90;;;;;;5014750;28;20048;-59
2023/01/26 11:26:46;;;;;;;35.53;16.48;;;-0.60;99.90;;;;;;5053028;28;20108;-58
2023/01/26 11:29:30;;;;;;;41.72;17.67;;;-0.40;99.90;;;;;;5053492;28;20032;-61
2023/01/26 11:32:02;;;;;;;37.33;17.38;;;-0.10;99.90;;;;;;5052657;28;20064;-61
2023/01/26 11:34:46;;;;;;;39.88;17.65;;;-0.30;99.90;;;;;;5035501;28;20032;-61
2023/01/26 11:37:42;;;;;;;46.50;18.83;;;-0.20;99.90;;;;;;5052112;28;20021;-61
2023/01/26 11:40:10;;;;;;;41.70;18.23;;;-0.20;99.90;;;;;;5052039;28;20029;-58
2023/01/26 11:42:49;;;;;;;39.92;18.13;;;-0.20;99.90;;;;;;5051255;28;20120;-59
2023/01/26 11:45:35;;;;;;;44.58;19.00;;;-0.30;99.90;;;;;;5050695;28;20063;-60
2023/01/26 11:48:32;;;;;;;40.42;18.13;;;-0.20;99.90;;;;;;5050265;28;20033;-59
2023/01/26 11:51:13;;;;;;;39.33;17.38;;;-0.20;99.90;;;;;;5051577;28;20033;-62
2023/01/26 11:53:58;;;;;;;52.97;20.40;;;-0.40;99.90;;;;;;5032399;28;20060;-57
2023/01/26 11:56:35;;;;;;;47.85;19.10;;;-0.40;99.90;;;;;;5051708;28;20052;-56
2023/01/26 11:59:12;;;;;;;51.95;19.25;;;-0.50;99.90;;;;;;5052365;28;20063;-60
2023/01/26 12:01:47;;;;;;;45.40;19.77;;;-0.40;99.90;;;;;;5051839;28;20021;-58
2023/01/26 12:04:20;;;;;;;47.80;19.42;;;-0.40;99.90;;;;;;5050741;28;20412;-61
2023/01/26 12:07:05;;;;;;;37.85;18.92;;;-0.30;99.90;;;;;;5051522;28;20048;-60
2023/01/26 12:09:46;;;;;;;38.92;18.35;;;-0.40;99.90;;;;;;5051504;28;20025;-60
2023/01/26 12:12:12;;;;;;;43.42;19.88;;;-0.40;99.90;;;;;;5051104;28;20033;-61
2023/01/26 12:14:55;;;;;;;37.72;17.00;;;-0.50;99.90;;;;;;5051074;28;20021;-58
2023/01/26 12:17:32;;;;;;;53.00;20.52;;;-0.50;99.90;;;;;;5052031;28;20025;-61
2023/01/26 12:20:03;;;;;;;57.53;22.75;;;-0.50;99.90;;;;;;5051025;28;20154;-61
2023/01/26 12:22:31;;;;;;;45.75;19.63;;;0.00;99.90;;;;;;5033148;28;20020;-62
2023/01/26 12:25:20;;;;;;;46.45;19.33;;;-0.30;99.90;;;;;;5051135;28;20053;-61
2023/01/26 12:28:18;;;;;;;36.91;16.77;;;-0.30;99.90;;;;;;4639887;28;10002874;-60
2023/01/26 12:30:59;;;;;;;39.70;16.85;;;-0.30;99.90;;;;;;5050043;28;20445;-60
2023/01/26 12:33:25;;;;;;;42.00;17.90;;;-0.20;99.90;;;;;;5052811;28;20029;-62
2023/01/26 12:35:57;;;;;;;46.22;17.52;;;-0.20;99.90;;;;;;5064946;28;20032;-61
2023/01/26 12:38:51;;;;;;;36.13;16.85;;;-0.20;99.90;;;;;;5068004;28;20029;-58
2023/01/26 12:41:42;;;;;;;37.75;17.13;;;-0.20;99.90;;;;;;5054658;28;20021;-60
2023/01/26 12:44:39;;;;;;;34.65;15.25;;;-0.20;99.90;;;;;;5052241;28;20025;-62
2023/01/26 12:47:26;;;;;;;33.65;15.15;;;-0.30;99.90;;;;;;5048119;28;20044;-60
2023/01/26 12:50:10;;;;;;;41.22;16.60;;;-0.30;99.90;;;;;;5048118;28;20060;-61
2023/01/26 12:52:41;;;;;;;45.53;17.60;;;-0.40;99.90;;;;;;5047329;28;20439;-61
2023/01/26 12:55:14;;;;;;;39.40;16.73;;;-0.30;99.90;;;;;;5027484;28;20026;-59
2023/01/26 12:57:52;;;;;;;48.20;18.63;;;-0.20;99.90;;;;;;5027884;28;20026;-60
2023/01/26 13:00:24;;;;;;;34.17;17.85;;;-0.20;99.90;;;;;;5027696;28;20018;-60
2023/01/26 13:02:55;;;;;;;51.13;18.05;;;-0.20;99.90;;;;;;5034141;28;20032;-62
2023/01/26 13:05:30;;;;;;;41.60;17.75;;;-0.20;99.90;;;;;;5053780;28;20590;-60
2023/01/26 13:07:56;;;;;;;39.00;17.42;;;-0.20;99.90;;;;;;5050955;28;20073;-60
2023/01/26 13:10:25;;;;;;;32.13;15.73;;;-0.10;99.90;;;;;;5048021;28;20056;-61
2023/01/26 13:12:55;;;;;;;30.70;14.23;;;-0.10;99.90;;;;;;5047697;28;20059;-59
2023/01/26 13:15:27;;;;;;;32.90;15.05;;;-0.20;99.90;;;;;;5047345;28;20812;-61
2023/01/26 13:17:53;;;;;;;26.58;15.38;;;-0.20;99.90;;;;;;5048258;28;20564;-62
2023/01/26 13:20:42;;;;;;;26.08;15.35;;;-0.30;99.90;;;;;;5048249;28;20032;-61
2023/01/26 13:23:41;;;;;;;32.30;15.98;;;-0.30;99.90;;;;;;5048725;28;20041;-61
2023/01/26 13:26:31;;;;;;;22.50;13.80;;;-0.30;99.90;;;;;;5034107;28;20445;-61
2023/01/26 13:29:19;;;;;;;19.00;12.32;;;-0.30;99.90;;;;;;5048102;28;20048;-60
2023/01/26 13:31:44;;;;;;;17.02;12.00;;;-0.10;99.90;;;;;;5048555;28;20029;-61